sensor_id;sensor_type;location;lat;lon;timestamp;temperature;humidity
69731;SHT31;56996;48.138;11.538;2023-03-01T00:01:36;2.42;64.68
69731;SHT31;56996;48.138;11.538;2023-03-01T00:04:03;2.42;64.66
69731;SHT31;56996;48.138;11.538;2023-03-01T00:06:30;2.42;64.70
69731;SHT31;56996;48.138;11.538;2023-03-01T00:08:57;2.41;64.86
69731;SHT31;56996;48.138;11.538;2023-03-01T00:11:25;2.40;64.85
69731;SHT31;56996;48.138;11.538;2023-03-01T00:13:58;2.39;64.88
69731;SHT31;56996;48.138;11.538;2023-03-01T00:18:57;2.41;64.92
69731;SHT31;56996;48.138;11.538;2023-03-01T00:21:24;2.39;64.97
69731;SHT31;56996;48.138;11.538;2023-03-01T00:23:53;2.35;65.10
69731;SHT31;56996;48.138;11.538;2023-03-01T00:26:23;2.34;65.03
69731;SHT31;56996;48.138;11.538;2023-03-01T00:28:51;2.34;65.10
69731;SHT31;56996;48.138;11.538;2023-03-01T00:31:19;2.36;65.04
69731;SHT31;56996;48.138;11.538;2023-03-01T00:33:52;2.38;65.03
69731;SHT31;56996;48.138;11.538;2023-03-01T00:36:24;2.35;65.04
69731;SHT31;56996;48.138;11.538;2023-03-01T00:38:55;2.35;65.08
69731;SHT31;56996;48.138;11.538;2023-03-01T00:41:22;2.33;65.04
69731;SHT31;56996;48.138;11.538;2023-03-01T00:43:50;2.31;65.12
69731;SHT31;56996;48.138;11.538;2023-03-01T00:46:20;2.33;65.03
69731;SHT31;56996;48.138;11.538;2023-03-01T00:48:49;2.33;64.97
69731;SHT31;56996;48.138;11.538;2023-03-01T00:51:17;2.29;65.09
69731;SHT31;56996;48.138;11.538;2023-03-01T00:53:49;2.29;65.04
69731;SHT31;56996;48.138;11.538;2023-03-01T00:56:18;2.29;65.04
69731;SHT31;56996;48.138;11.538;2023-03-01T00:58:44;2.32;65.16
69731;SHT31;56996;48.138;11.538;2023-03-01T01:01:14;2.31;65.10
69731;SHT31;56996;48.138;11.538;2023-03-01T01:03:49;2.31;65.00
69731;SHT31;56996;48.138;11.538;2023-03-01T01:06:20;2.31;64.95
69731;SHT31;56996;48.138;11.538;2023-03-01T01:08:53;2.30;64.99
69731;SHT31;56996;48.138;11.538;2023-03-01T01:11:21;2.29;65.07
69731;SHT31;56996;48.138;11.538;2023-03-01T01:13:50;2.30;65.09
69731;SHT31;56996;48.138;11.538;2023-03-01T01:16:19;2.33;65.05
69731;SHT31;56996;48.138;11.538;2023-03-01T01:18:48;2.36;65.02
69731;SHT31;56996;48.138;11.538;2023-03-01T01:21:16;2.35;64.98
69731;SHT31;56996;48.138;11.538;2023-03-01T01:23:46;2.32;64.94
69731;SHT31;56996;48.138;11.538;2023-03-01T01:26:18;2.27;65.03
69731;SHT31;56996;48.138;11.538;2023-03-01T01:28:49;2.24;65.05
69731;SHT31;56996;48.138;11.538;2023-03-01T01:31:17;2.23;65.03
69731;SHT31;56996;48.138;11.538;2023-03-01T01:33:45;2.24;65.01
69731;SHT31;56996;48.138;11.538;2023-03-01T01:36:13;2.24;65.04
69731;SHT31;56996;48.138;11.538;2023-03-01T01:38:39;2.26;65.06
69731;SHT31;56996;48.138;11.538;2023-03-01T01:41:09;2.25;65.16
69731;SHT31;56996;48.138;11.538;2023-03-01T01:43:38;2.24;65.21
69731;SHT31;56996;48.138;11.538;2023-03-01T01:46:32;2.23;65.11
69731;SHT31;56996;48.138;11.538;2023-03-01T01:49:06;2.21;65.16
69731;SHT31;56996;48.138;11.538;2023-03-01T01:51:55;2.21;65.18
69731;SHT31;56996;48.138;11.538;2023-03-01T01:54:58;2.22;65.18
69731;SHT31;56996;48.138;11.538;2023-03-01T01:57:32;2.22;65.21
69731;SHT31;56996;48.138;11.538;2023-03-01T02:00:05;2.19;65.19
69731;SHT31;56996;48.138;11.538;2023-03-01T02:02:39;2.16;65.27
69731;SHT31;56996;48.138;11.538;2023-03-01T02:05:13;2.13;65.37
69731;SHT31;56996;48.138;11.538;2023-03-01T02:07:53;2.12;65.37
69731;SHT31;56996;48.138;11.538;2023-03-01T02:10:21;2.12;65.38
69731;SHT31;56996;48.138;11.538;2023-03-01T02:12:49;2.11;65.36
69731;SHT31;56996;48.138;11.538;2023-03-01T02:15:17;2.12;65.34
69731;SHT31;56996;48.138;11.538;2023-03-01T02:17:45;2.10;65.45
69731;SHT31;56996;48.138;11.538;2023-03-01T02:20:21;2.05;65.57
69731;SHT31;56996;48.138;11.538;2023-03-01T02:22:59;2.03;65.66
69731;SHT31;56996;48.138;11.538;2023-03-01T02:31:04;2.02;65.78
69731;SHT31;56996;48.138;11.538;2023-03-01T02:33:52;2.02;65.69
69731;SHT31;56996;48.138;11.538;2023-03-01T02:36:22;2.03;65.64
69731;SHT31;56996;48.138;11.538;2023-03-01T02:39:00;1.99;65.67
69731;SHT31;56996;48.138;11.538;2023-03-01T02:41:30;1.96;65.78
69731;SHT31;56996;48.138;11.538;2023-03-01T02:44:02;1.97;65.73
69731;SHT31;56996;48.138;11.538;2023-03-01T02:46:30;1.97;65.79
69731;SHT31;56996;48.138;11.538;2023-03-01T02:48:58;1.96;65.69
69731;SHT31;56996;48.138;11.538;2023-03-01T02:54:42;1.90;65.69
69731;SHT31;56996;48.138;11.538;2023-03-01T02:57:20;1.90;65.64
69731;SHT31;56996;48.138;11.538;2023-03-01T02:59:49;1.93;65.53
69731;SHT31;56996;48.138;11.538;2023-03-01T03:02:18;1.86;65.58
69731;SHT31;56996;48.138;11.538;2023-03-01T03:05:15;1.86;65.56
69731;SHT31;56996;48.138;11.538;2023-03-01T03:07:46;1.87;65.52
69731;SHT31;56996;48.138;11.538;2023-03-01T03:10:16;1.89;65.50
69731;SHT31;56996;48.138;11.538;2023-03-01T03:12:54;1.93;65.43
69731;SHT31;56996;48.138;11.538;2023-03-01T03:15:33;1.97;65.29
69731;SHT31;56996;48.138;11.538;2023-03-01T03:18:03;1.98;65.09
69731;SHT31;56996;48.138;11.538;2023-03-01T03:20:33;2.00;64.87
69731;SHT31;56996;48.138;11.538;2023-03-01T03:23:00;2.00;64.77
69731;SHT31;56996;48.138;11.538;2023-03-01T03:25:27;1.96;64.76
69731;SHT31;56996;48.138;11.538;2023-03-01T03:27:55;1.89;64.80
69731;SHT31;56996;48.138;11.538;2023-03-01T03:30:27;1.88;64.81
69731;SHT31;56996;48.138;11.538;2023-03-01T03:32:58;1.84;64.72
69731;SHT31;56996;48.138;11.538;2023-03-01T03:35:26;1.82;64.75
69731;SHT31;56996;48.138;11.538;2023-03-01T03:37:58;1.77;64.72
69731;SHT31;56996;48.138;11.538;2023-03-01T03:43:04;1.71;64.79
69731;SHT31;56996;48.138;11.538;2023-03-01T03:45:40;1.69;64.85
69731;SHT31;56996;48.138;11.538;2023-03-01T03:48:08;1.71;64.80
69731;SHT31;56996;48.138;11.538;2023-03-01T03:50:36;1.71;64.89
69731;SHT31;56996;48.138;11.538;2023-03-01T03:53:06;1.75;64.86
69731;SHT31;56996;48.138;11.538;2023-03-01T03:55:38;1.77;64.78
69731;SHT31;56996;48.138;11.538;2023-03-01T03:58:06;1.73;64.61
69731;SHT31;56996;48.138;11.538;2023-03-01T04:00:40;1.70;64.69
69731;SHT31;56996;48.138;11.538;2023-03-01T04:03:11;1.66;64.81
69731;SHT31;56996;48.138;11.538;2023-03-01T04:05:40;1.62;64.93
69731;SHT31;56996;48.138;11.538;2023-03-01T04:08:07;1.59;65.05
69731;SHT31;56996;48.138;11.538;2023-03-01T04:10:43;1.60;65.08
69731;SHT31;56996;48.138;11.538;2023-03-01T04:13:14;1.57;65.19
69731;SHT31;56996;48.138;11.538;2023-03-01T04:15:46;1.50;65.24
69731;SHT31;56996;48.138;11.538;2023-03-01T04:18:17;1.51;65.24
69731;SHT31;56996;48.138;11.538;2023-03-01T04:20:46;1.56;65.00
69731;SHT31;56996;48.138;11.538;2023-03-01T04:23:14;1.55;64.92
69731;SHT31;56996;48.138;11.538;2023-03-01T04:25:50;1.56;64.99
69731;SHT31;56996;48.138;11.538;2023-03-01T04:30:53;1.51;65.01
69731;SHT31;56996;48.138;11.538;2023-03-01T04:33:22;1.46;65.03
69731;SHT31;56996;48.138;11.538;2023-03-01T04:35:51;1.45;64.98
69731;SHT31;56996;48.138;11.538;2023-03-01T04:38:18;1.44;65.07
69731;SHT31;56996;48.138;11.538;2023-03-01T04:40:47;1.45;65.12
69731;SHT31;56996;48.138;11.538;2023-03-01T04:43:14;1.45;65.18
69731;SHT31;56996;48.138;11.538;2023-03-01T04:45:41;1.45;65.22
69731;SHT31;56996;48.138;11.538;2023-03-01T04:48:08;1.45;65.32
69731;SHT31;56996;48.138;11.538;2023-03-01T04:50:35;1.38;65.56
69731;SHT31;56996;48.138;11.538;2023-03-01T04:53:02;1.32;65.82
69731;SHT31;56996;48.138;11.538;2023-03-01T04:55:29;1.27;65.90
69731;SHT31;56996;48.138;11.538;2023-03-01T04:57:56;1.25;65.91
69731;SHT31;56996;48.138;11.538;2023-03-01T05:00:23;1.22;66.01
69731;SHT31;56996;48.138;11.538;2023-03-01T05:02:54;1.22;66.08
69731;SHT31;56996;48.138;11.538;2023-03-01T05:05:27;1.24;66.10
69731;SHT31;56996;48.138;11.538;2023-03-01T05:08:01;1.24;66.10
69731;SHT31;56996;48.138;11.538;2023-03-01T05:10:33;1.22;65.94
69731;SHT31;56996;48.138;11.538;2023-03-01T05:13:02;1.24;66.07
69731;SHT31;56996;48.138;11.538;2023-03-01T05:15:30;1.27;66.00
69731;SHT31;56996;48.138;11.538;2023-03-01T05:17:58;1.22;65.87
69731;SHT31;56996;48.138;11.538;2023-03-01T05:20:26;1.15;65.94
69731;SHT31;56996;48.138;11.538;2023-03-01T05:22:56;1.10;66.25
69731;SHT31;56996;48.138;11.538;2023-03-01T05:25:26;1.05;66.20
69731;SHT31;56996;48.138;11.538;2023-03-01T05:28:02;1.03;66.24
69731;SHT31;56996;48.138;11.538;2023-03-01T05:30:33;1.04;66.15
69731;SHT31;56996;48.138;11.538;2023-03-01T05:33:00;1.04;66.19
69731;SHT31;56996;48.138;11.538;2023-03-01T05:35:27;1.02;66.17
69731;SHT31;56996;48.138;11.538;2023-03-01T05:37:55;0.99;66.28
69731;SHT31;56996;48.138;11.538;2023-03-01T05:40:23;0.98;66.23
69731;SHT31;56996;48.138;11.538;2023-03-01T05:42:54;0.96;66.21
69731;SHT31;56996;48.138;11.538;2023-03-01T05:45:23;0.94;66.18
69731;SHT31;56996;48.138;11.538;2023-03-01T05:47:51;0.92;66.11
69731;SHT31;56996;48.138;11.538;2023-03-01T05:50:22;0.94;66.16
69731;SHT31;56996;48.138;11.538;2023-03-01T05:52:57;0.92;66.30
69731;SHT31;56996;48.138;11.538;2023-03-01T05:55:36;0.88;66.70
69731;SHT31;56996;48.138;11.538;2023-03-01T05:58:06;0.90;66.49
69731;SHT31;56996;48.138;11.538;2023-03-01T06:00:37;0.96;66.40
69731;SHT31;56996;48.138;11.538;2023-03-01T06:03:03;0.96;66.19
69731;SHT31;56996;48.138;11.538;2023-03-01T06:05:30;0.94;66.19
69731;SHT31;56996;48.138;11.538;2023-03-01T06:07:58;0.93;66.07
69731;SHT31;56996;48.138;11.538;2023-03-01T06:10:27;0.94;66.14
69731;SHT31;56996;48.138;11.538;2023-03-01T06:12:54;0.89;66.21
69731;SHT31;56996;48.138;11.538;2023-03-01T06:15:21;0.85;66.25
69731;SHT31;56996;48.138;11.538;2023-03-01T06:17:48;0.84;66.29
69731;SHT31;56996;48.138;11.538;2023-03-01T06:20:19;0.83;66.28
69731;SHT31;56996;48.138;11.538;2023-03-01T06:22:50;0.82;66.22
69731;SHT31;56996;48.138;11.538;2023-03-01T06:25:31;0.80;66.39
69731;SHT31;56996;48.138;11.538;2023-03-01T06:27:58;0.81;66.45
69731;SHT31;56996;48.138;11.538;2023-03-01T06:30:25;0.84;66.37
69731;SHT31;56996;48.138;11.538;2023-03-01T06:32:53;0.84;66.37
69731;SHT31;56996;48.138;11.538;2023-03-01T06:35:27;0.83;66.28
69731;SHT31;56996;48.138;11.538;2023-03-01T06:37:56;0.81;66.33
69731;SHT31;56996;48.138;11.538;2023-03-01T06:40:25;0.78;66.35
69731;SHT31;56996;48.138;11.538;2023-03-01T06:42:52;0.78;66.47
69731;SHT31;56996;48.138;11.538;2023-03-01T06:45:19;0.78;66.39
69731;SHT31;56996;48.138;11.538;2023-03-01T06:47:47;0.79;66.56
69731;SHT31;56996;48.138;11.538;2023-03-01T06:50:14;0.76;66.57
69731;SHT31;56996;48.138;11.538;2023-03-01T06:52:43;0.77;66.62
69731;SHT31;56996;48.138;11.538;2023-03-01T06:55:11;0.81;66.67
69731;SHT31;56996;48.138;11.538;2023-03-01T06:57:39;0.86;66.57
69731;SHT31;56996;48.138;11.538;2023-03-01T07:00:07;0.92;66.39
69731;SHT31;56996;48.138;11.538;2023-03-01T07:02:35;0.93;66.37
69731;SHT31;56996;48.138;11.538;2023-03-01T07:05:03;0.92;66.30
69731;SHT31;56996;48.138;11.538;2023-03-01T07:07:30;0.92;66.31
69731;SHT31;56996;48.138;11.538;2023-03-01T07:09:57;0.93;66.40
69731;SHT31;56996;48.138;11.538;2023-03-01T07:12:24;0.95;66.41
69731;SHT31;56996;48.138;11.538;2023-03-01T07:14:50;0.99;66.10
69731;SHT31;56996;48.138;11.538;2023-03-01T07:17:17;1.01;65.94
69731;SHT31;56996;48.138;11.538;2023-03-01T07:19:45;1.04;65.88
69731;SHT31;56996;48.138;11.538;2023-03-01T07:22:11;1.06;65.94
69731;SHT31;56996;48.138;11.538;2023-03-01T07:24:38;1.10;65.89
69731;SHT31;56996;48.138;11.538;2023-03-01T07:27:05;1.11;65.84
69731;SHT31;56996;48.138;11.538;2023-03-01T07:29:31;1.19;65.86
69731;SHT31;56996;48.138;11.538;2023-03-01T07:31:58;1.33;65.89
69731;SHT31;56996;48.138;11.538;2023-03-01T07:34:25;1.43;65.59
69731;SHT31;56996;48.138;11.538;2023-03-01T07:36:52;1.50;65.20
69731;SHT31;56996;48.138;11.538;2023-03-01T07:39:18;1.45;64.99
69731;SHT31;56996;48.138;11.538;2023-03-01T07:41:45;1.44;65.31
69731;SHT31;56996;48.138;11.538;2023-03-01T07:44:12;1.44;65.15
69731;SHT31;56996;48.138;11.538;2023-03-01T07:46:39;1.50;65.26
69731;SHT31;56996;48.138;11.538;2023-03-01T07:49:05;1.53;65.01
69731;SHT31;56996;48.138;11.538;2023-03-01T07:51:32;1.56;65.01
69731;SHT31;56996;48.138;11.538;2023-03-01T07:53:59;1.63;64.81
69731;SHT31;56996;48.138;11.538;2023-03-01T07:56:25;1.69;64.62
69731;SHT31;56996;48.138;11.538;2023-03-01T07:58:52;1.71;64.49
69731;SHT31;56996;48.138;11.538;2023-03-01T08:01:20;1.69;64.27
69731;SHT31;56996;48.138;11.538;2023-03-01T08:03:48;1.59;64.21
69731;SHT31;56996;48.138;11.538;2023-03-01T08:06:15;1.58;64.34
69731;SHT31;56996;48.138;11.538;2023-03-01T08:08:43;1.61;64.23
69731;SHT31;56996;48.138;11.538;2023-03-01T08:11:11;1.64;64.03
69731;SHT31;56996;48.138;11.538;2023-03-01T08:13:39;1.67;63.97
69731;SHT31;56996;48.138;11.538;2023-03-01T08:16:10;1.71;63.93
69731;SHT31;56996;48.138;11.538;2023-03-01T08:18:41;1.73;63.83
69731;SHT31;56996;48.138;11.538;2023-03-01T08:21:13;1.71;63.87
69731;SHT31;56996;48.138;11.538;2023-03-01T08:23:42;1.75;63.98
69731;SHT31;56996;48.138;11.538;2023-03-01T08:26:11;1.83;64.17
69731;SHT31;56996;48.138;11.538;2023-03-01T08:28:41;1.87;63.90
69731;SHT31;56996;48.138;11.538;2023-03-01T08:33:51;2.11;63.65
69731;SHT31;56996;48.138;11.538;2023-03-01T08:36:25;2.18;63.48
69731;SHT31;56996;48.138;11.538;2023-03-01T08:39:04;2.24;63.11
69731;SHT31;56996;48.138;11.538;2023-03-01T08:41:31;2.30;62.94
69731;SHT31;56996;48.138;11.538;2023-03-01T08:43:58;2.37;62.75
69731;SHT31;56996;48.138;11.538;2023-03-01T08:46:26;2.40;62.41
69731;SHT31;56996;48.138;11.538;2023-03-01T08:49:17;2.41;62.12
69731;SHT31;56996;48.138;11.538;2023-03-01T08:51:46;2.42;61.86
69731;SHT31;56996;48.138;11.538;2023-03-01T08:54:18;2.43;61.88
69731;SHT31;56996;48.138;11.538;2023-03-01T08:56:47;2.50;61.91
69731;SHT31;56996;48.138;11.538;2023-03-01T08:59:15;2.54;61.22
69731;SHT31;56996;48.138;11.538;2023-03-01T09:01:43;2.58;61.90
69731;SHT31;56996;48.138;11.538;2023-03-01T09:04:10;2.71;61.47
69731;SHT31;56996;48.138;11.538;2023-03-01T09:06:38;2.75;61.27
69731;SHT31;56996;48.138;11.538;2023-03-01T09:09:05;2.76;61.00
69731;SHT31;56996;48.138;11.538;2023-03-01T09:11:34;2.75;60.80
69731;SHT31;56996;48.138;11.538;2023-03-01T09:14:00;2.80;61.16
69731;SHT31;56996;48.138;11.538;2023-03-01T09:16:27;2.90;60.84
69731;SHT31;56996;48.138;11.538;2023-03-01T09:18:56;2.89;60.57
69731;SHT31;56996;48.138;11.538;2023-03-01T09:21:23;2.87;60.59
69731;SHT31;56996;48.138;11.538;2023-03-01T09:24:06;2.90;60.50
69731;SHT31;56996;48.138;11.538;2023-03-01T09:26:41;2.92;60.54
69731;SHT31;56996;48.138;11.538;2023-03-01T09:29:09;2.96;60.31
69731;SHT31;56996;48.138;11.538;2023-03-01T09:31:36;2.96;60.30
69731;SHT31;56996;48.138;11.538;2023-03-01T09:34:03;2.90;60.29
69731;SHT31;56996;48.138;11.538;2023-03-01T09:36:29;2.85;60.48
69731;SHT31;56996;48.138;11.538;2023-03-01T09:38:57;2.91;60.60
69731;SHT31;56996;48.138;11.538;2023-03-01T09:44:30;3.05;60.23
69731;SHT31;56996;48.138;11.538;2023-03-01T09:47:17;3.11;60.06
69731;SHT31;56996;48.138;11.538;2023-03-01T09:50:01;3.13;60.05
69731;SHT31;56996;48.138;11.538;2023-03-01T09:55:10;3.28;59.93
69731;SHT31;56996;48.138;11.538;2023-03-01T09:57:52;3.39;60.07
69731;SHT31;56996;48.138;11.538;2023-03-01T10:00:44;3.48;59.60
69731;SHT31;56996;48.138;11.538;2023-03-01T10:06:13;3.67;59.22
69731;SHT31;56996;48.138;11.538;2023-03-01T10:09:01;3.73;59.22
69731;SHT31;56996;48.138;11.538;2023-03-01T10:11:38;3.70;58.89
69731;SHT31;56996;48.138;11.538;2023-03-01T10:17:12;3.68;59.92
69731;SHT31;56996;48.138;11.538;2023-03-01T10:20:28;3.79;59.37
69731;SHT31;56996;48.138;11.538;2023-03-01T10:23:00;3.84;58.99
69731;SHT31;56996;48.138;11.538;2023-03-01T10:29:16;3.91;59.30
69731;SHT31;56996;48.138;11.538;2023-03-01T10:31:38;3.98;58.93
69731;SHT31;56996;48.138;11.538;2023-03-01T10:36:57;3.98;58.31
69731;SHT31;56996;48.138;11.538;2023-03-01T10:39:36;3.99;57.99
69731;SHT31;56996;48.138;11.538;2023-03-01T10:42:32;3.94;57.86
69731;SHT31;56996;48.138;11.538;2023-03-01T10:45:31;3.98;57.79
69731;SHT31;56996;48.138;11.538;2023-03-01T10:50:34;4.37;57.76
69731;SHT31;56996;48.138;11.538;2023-03-01T10:56:14;4.76;56.14
69731;SHT31;56996;48.138;11.538;2023-03-01T10:59:01;4.89;56.36
69731;SHT31;56996;48.138;11.538;2023-03-01T11:01:31;5.07;56.46
69731;SHT31;56996;48.138;11.538;2023-03-01T11:06:31;5.17;55.69
69731;SHT31;56996;48.138;11.538;2023-03-01T11:09:20;5.12;55.22
69731;SHT31;56996;48.138;11.538;2023-03-01T11:11:52;4.98;54.71
69731;SHT31;56996;48.138;11.538;2023-03-01T11:19:48;5.14;55.12
69731;SHT31;56996;48.138;11.538;2023-03-01T11:22:41;5.19;54.77
69731;SHT31;56996;48.138;11.538;2023-03-01T11:25:37;5.26;55.04
69731;SHT31;56996;48.138;11.538;2023-03-01T11:28:12;5.38;54.78
69731;SHT31;56996;48.138;11.538;2023-03-01T11:42:20;5.37;54.51
69731;SHT31;56996;48.138;11.538;2023-03-01T11:45:01;5.42;54.53
69731;SHT31;56996;48.138;11.538;2023-03-01T11:50:42;5.40;54.33
69731;SHT31;56996;48.138;11.538;2023-03-01T11:56:38;5.32;54.83
69731;SHT31;56996;48.138;11.538;2023-03-01T12:02:07;5.41;54.52
69731;SHT31;56996;48.138;11.538;2023-03-01T12:08:06;5.67;54.12
69731;SHT31;56996;48.138;11.538;2023-03-01T12:16:44;5.77;53.93
69731;SHT31;56996;48.138;11.538;2023-03-01T12:19:54;5.83;54.16
69731;SHT31;56996;48.138;11.538;2023-03-01T12:29:31;5.97;54.35
69731;SHT31;56996;48.138;11.538;2023-03-01T12:38:25;6.23;53.77
69731;SHT31;56996;48.138;11.538;2023-03-01T12:49:02;6.03;53.76
69731;SHT31;56996;48.138;11.538;2023-03-01T12:52:02;6.07;53.65
69731;SHT31;56996;48.138;11.538;2023-03-01T12:54:40;6.11;53.40
69731;SHT31;56996;48.138;11.538;2023-03-01T12:57:11;6.17;53.55
69731;SHT31;56996;48.138;11.538;2023-03-01T13:05:47;6.28;53.37
69731;SHT31;56996;48.138;11.538;2023-03-01T13:08:55;6.40;53.01
69731;SHT31;56996;48.138;11.538;2023-03-01T13:11:35;6.39;52.97
69731;SHT31;56996;48.138;11.538;2023-03-01T13:16:48;6.46;53.04
69731;SHT31;56996;48.138;11.538;2023-03-01T13:19:24;6.48;52.83
69731;SHT31;56996;48.138;11.538;2023-03-01T13:21:58;6.55;52.98
69731;SHT31;56996;48.138;11.538;2023-03-01T13:24:26;6.56;52.53
69731;SHT31;56996;48.138;11.538;2023-03-01T13:32:24;6.68;53.25
69731;SHT31;56996;48.138;11.538;2023-03-01T13:37:41;6.76;52.82
69731;SHT31;56996;48.138;11.538;2023-03-01T13:42:45;6.86;52.93
69731;SHT31;56996;48.138;11.538;2023-03-01T13:45:33;6.97;52.70
69731;SHT31;56996;48.138;11.538;2023-03-01T13:48:08;7.01;52.43
69731;SHT31;56996;48.138;11.538;2023-03-01T13:50:48;6.99;52.29
69731;SHT31;56996;48.138;11.538;2023-03-01T13:53:24;6.98;52.76
69731;SHT31;56996;48.138;11.538;2023-03-01T13:56:01;7.10;52.78
69731;SHT31;56996;48.138;11.538;2023-03-01T13:58:46;7.16;52.46
69731;SHT31;56996;48.138;11.538;2023-03-01T14:01:24;7.19;52.38
69731;SHT31;56996;48.138;11.538;2023-03-01T14:03:58;7.23;52.37
69731;SHT31;56996;48.138;11.538;2023-03-01T14:06:28;7.25;51.84
69731;SHT31;56996;48.138;11.538;2023-03-01T14:09:09;7.13;52.08
69731;SHT31;56996;48.138;11.538;2023-03-01T14:15:01;7.09;52.48
69731;SHT31;56996;48.138;11.538;2023-03-01T14:20:52;7.13;52.47
69731;SHT31;56996;48.138;11.538;2023-03-01T14:23:22;7.16;52.37
69731;SHT31;56996;48.138;11.538;2023-03-01T14:25:51;7.18;52.61
69731;SHT31;56996;48.138;11.538;2023-03-01T14:28:21;7.22;52.68
69731;SHT31;56996;48.138;11.538;2023-03-01T14:30:51;7.24;52.62
69731;SHT31;56996;48.138;11.538;2023-03-01T14:33:25;7.26;52.73
69731;SHT31;56996;48.138;11.538;2023-03-01T14:35:54;7.29;52.77
69731;SHT31;56996;48.138;11.538;2023-03-01T14:38:29;7.24;52.81
69731;SHT31;56996;48.138;11.538;2023-03-01T14:41:06;7.18;53.12
69731;SHT31;56996;48.138;11.538;2023-03-01T14:43:49;7.17;53.11
69731;SHT31;56996;48.138;11.538;2023-03-01T14:46:24;7.15;53.14
69731;SHT31;56996;48.138;11.538;2023-03-01T14:49:04;7.15;53.18
69731;SHT31;56996;48.138;11.538;2023-03-01T14:51:36;7.20;53.11
69731;SHT31;56996;48.138;11.538;2023-03-01T14:57:23;7.22;53.84
69731;SHT31;56996;48.138;11.538;2023-03-01T14:59:53;7.22;53.88
69731;SHT31;56996;48.138;11.538;2023-03-01T15:02:26;7.21;53.85
69731;SHT31;56996;48.138;11.538;2023-03-01T15:04:55;7.18;54.17
69731;SHT31;56996;48.138;11.538;2023-03-01T15:07:30;7.17;53.97
69731;SHT31;56996;48.138;11.538;2023-03-01T15:10:02;7.15;54.43
69731;SHT31;56996;48.138;11.538;2023-03-01T15:12:36;7.15;54.45
69731;SHT31;56996;48.138;11.538;2023-03-01T15:17:53;7.05;54.70
69731;SHT31;56996;48.138;11.538;2023-03-01T15:20:24;7.05;54.93
69731;SHT31;56996;48.138;11.538;2023-03-01T15:22:55;7.09;55.03
69731;SHT31;56996;48.138;11.538;2023-03-01T15:25:25;7.11;54.91
69731;SHT31;56996;48.138;11.538;2023-03-01T15:27:54;7.09;54.88
69731;SHT31;56996;48.138;11.538;2023-03-01T15:30:29;7.03;54.99
69731;SHT31;56996;48.138;11.538;2023-03-01T15:35:56;6.99;55.14
69731;SHT31;56996;48.138;11.538;2023-03-01T15:41:01;6.97;55.27
69731;SHT31;56996;48.138;11.538;2023-03-01T15:43:39;6.95;55.37
69731;SHT31;56996;48.138;11.538;2023-03-01T15:46:16;6.91;55.54
69731;SHT31;56996;48.138;11.538;2023-03-01T15:48:52;6.89;55.72
69731;SHT31;56996;48.138;11.538;2023-03-01T15:51:26;6.88;55.88
69731;SHT31;56996;48.138;11.538;2023-03-01T15:54:01;6.87;55.98
69731;SHT31;56996;48.138;11.538;2023-03-01T15:56:45;6.88;56.13
69731;SHT31;56996;48.138;11.538;2023-03-01T15:59:12;6.87;56.33
69731;SHT31;56996;48.138;11.538;2023-03-01T16:01:40;6.86;56.26
69731;SHT31;56996;48.138;11.538;2023-03-01T16:04:11;6.82;56.40
69731;SHT31;56996;48.138;11.538;2023-03-01T16:06:47;6.80;56.68
69731;SHT31;56996;48.138;11.538;2023-03-01T16:09:23;6.78;56.80
69731;SHT31;56996;48.138;11.538;2023-03-01T16:11:52;6.75;56.94
69731;SHT31;56996;48.138;11.538;2023-03-01T16:14:20;6.73;57.16
69731;SHT31;56996;48.138;11.538;2023-03-01T16:16:47;6.71;57.25
69731;SHT31;56996;48.138;11.538;2023-03-01T16:19:14;6.70;57.38
69731;SHT31;56996;48.138;11.538;2023-03-01T16:21:42;6.70;57.51
69731;SHT31;56996;48.138;11.538;2023-03-01T16:24:09;6.68;57.66
69731;SHT31;56996;48.138;11.538;2023-03-01T16:26:36;6.68;57.75
69731;SHT31;56996;48.138;11.538;2023-03-01T16:29:04;6.68;57.88
69731;SHT31;56996;48.138;11.538;2023-03-01T16:31:31;6.68;57.89
69731;SHT31;56996;48.138;11.538;2023-03-01T16:33:59;6.66;58.04
69731;SHT31;56996;48.138;11.538;2023-03-01T16:36:26;6.64;58.17
69731;SHT31;56996;48.138;11.538;2023-03-01T16:38:55;6.60;58.16
69731;SHT31;56996;48.138;11.538;2023-03-01T16:41:25;6.58;58.31
69731;SHT31;56996;48.138;11.538;2023-03-01T16:43:51;6.55;58.53
69731;SHT31;56996;48.138;11.538;2023-03-01T16:46:19;6.52;58.63
69731;SHT31;56996;48.138;11.538;2023-03-01T16:48:49;6.50;58.76
69731;SHT31;56996;48.138;11.538;2023-03-01T16:51:17;6.46;58.95
69731;SHT31;56996;48.138;11.538;2023-03-01T16:53:45;6.45;59.10
69731;SHT31;56996;48.138;11.538;2023-03-01T16:56:13;6.43;59.23
69731;SHT31;56996;48.138;11.538;2023-03-01T16:58:40;6.40;59.28
69731;SHT31;56996;48.138;11.538;2023-03-01T17:01:09;6.38;59.43
69731;SHT31;56996;48.138;11.538;2023-03-01T17:03:42;6.34;59.40
69731;SHT31;56996;48.138;11.538;2023-03-01T17:06:13;6.31;59.67
69731;SHT31;56996;48.138;11.538;2023-03-01T17:08:46;6.28;59.83
69731;SHT31;56996;48.138;11.538;2023-03-01T17:11:13;6.26;59.95
69731;SHT31;56996;48.138;11.538;2023-03-01T17:13:45;6.24;60.09
69731;SHT31;56996;48.138;11.538;2023-03-01T17:16:14;6.21;60.25
69731;SHT31;56996;48.138;11.538;2023-03-01T17:18:44;6.18;60.37
69731;SHT31;56996;48.138;11.538;2023-03-01T17:21:11;6.17;60.69
69731;SHT31;56996;48.138;11.538;2023-03-01T17:23:39;6.15;60.85
69731;SHT31;56996;48.138;11.538;2023-03-01T17:26:08;6.13;61.00
69731;SHT31;56996;48.138;11.538;2023-03-01T17:28:36;6.13;60.99
69731;SHT31;56996;48.138;11.538;2023-03-01T17:31:04;6.12;60.97
69731;SHT31;56996;48.138;11.538;2023-03-01T17:33:32;6.09;60.56
69731;SHT31;56996;48.138;11.538;2023-03-01T17:35:59;6.04;60.51
69731;SHT31;56996;48.138;11.538;2023-03-01T17:38:27;5.99;60.55
69731;SHT31;56996;48.138;11.538;2023-03-01T17:40:54;5.92;60.67
69731;SHT31;56996;48.138;11.538;2023-03-01T17:43:20;5.86;60.88
69731;SHT31;56996;48.138;11.538;2023-03-01T17:45:47;5.80;60.94
69731;SHT31;56996;48.138;11.538;2023-03-01T17:48:17;5.74;61.10
69731;SHT31;56996;48.138;11.538;2023-03-01T17:50:43;5.66;61.21
69731;SHT31;56996;48.138;11.538;2023-03-01T17:53:11;5.61;61.30
69731;SHT31;56996;48.138;11.538;2023-03-01T17:55:39;5.57;61.39
69731;SHT31;56996;48.138;11.538;2023-03-01T17:58:08;5.53;61.50
69731;SHT31;56996;48.138;11.538;2023-03-01T18:00:38;5.46;61.60
69731;SHT31;56996;48.138;11.538;2023-03-01T18:03:05;5.41;61.77
69731;SHT31;56996;48.138;11.538;2023-03-01T18:05:33;5.35;62.02
69731;SHT31;56996;48.138;11.538;2023-03-01T18:08:01;5.29;62.13
69731;SHT31;56996;48.138;11.538;2023-03-01T18:10:30;5.26;62.21
69731;SHT31;56996;48.138;11.538;2023-03-01T18:12:58;5.22;62.24
69731;SHT31;56996;48.138;11.538;2023-03-01T18:15:25;5.15;62.27
69731;SHT31;56996;48.138;11.538;2023-03-01T18:17:52;5.10;62.47